Time;durP1;ratioP1;P1;durP2;ratioP2;P2;SDS_P1;SDS_P2;PMS_P1;PMS_P2;Temp;Humidity;BMP_temperature;BMP_pressure;BME280_temperature;BME280_humidity;BME280_pressure;Samples;Min_cycle;Max_cycle;Signal;HPM_P1;HPM_P2
2022/04/11 00:01:02;;;;;;;2.58;2.05;;;18.20;34.20;;;;;;5037756;28;20020;-78
2022/04/11 00:03:29;;;;;;;3.58;2.55;;;18.20;34.20;;;;;;5036389;28;20092;-78
2022/04/11 00:05:55;;;;;;;3.90;2.53;;;18.20;34.20;;;;;;5035865;28;20092;-79
2022/04/11 00:08:21;;;;;;;4.13;2.47;;;18.20;34.20;;;;;;5035652;28;20045;-80
2022/04/11 00:10:48;;;;;;;3.00;2.10;;;18.20;34.30;;;;;;5035525;28;20029;-79
2022/04/11 00:13:13;;;;;;;3.10;2.13;;;18.20;34.30;;;;;;5035070;28;20040;-79
2022/04/11 00:15:40;;;;;;;3.53;2.30;;;18.20;34.30;;;;;;5034913;28;20092;-79
2022/04/11 00:18:07;;;;;;;3.75;2.30;;;18.20;34.30;;;;;;5035181;28;20013;-79
2022/04/11 00:20:33;;;;;;;3.00;2.20;;;18.20;34.40;;;;;;5035127;28;20435;-79
2022/04/11 00:22:59;;;;;;;2.72;2.10;;;18.20;34.30;;;;;;5039225;28;20018;-81
2022/04/11 00:25:26;;;;;;;2.80;2.20;;;18.20;34.30;;;;;;5039942;28;20053;-81
2022/04/11 00:27:52;;;;;;;3.55;2.40;;;18.20;34.30;;;;;;5039400;28;20025;-80
2022/04/11 00:30:19;;;;;;;3.20;2.15;;;18.20;34.40;;;;;;5039597;28;20023;-81
2022/04/11 00:32:45;;;;;;;3.25;2.30;;;18.20;34.40;;;;;;5039390;28;20052;-80
2022/04/11 00:35:12;;;;;;;2.85;2.35;;;18.10;34.40;;;;;;5044301;28;20036;-81
2022/04/11 00:37:39;;;;;;;3.88;2.10;;;18.20;34.40;;;;;;5040015;28;20069;-79
2022/04/11 00:40:06;;;;;;;3.70;2.50;;;18.10;34.40;;;;;;5039055;28;20026;-79
2022/04/11 00:42:32;;;;;;;3.65;2.33;;;18.10;34.40;;;;;;5039442;28;20048;-80
2022/04/11 00:45:03;;;;;;;4.97;2.92;;;18.10;34.40;;;;;;5037005;28;20033;-78
2022/04/11 00:47:29;;;;;;;3.30;2.22;;;18.10;34.40;;;;;;5035758;28;20255;-78
2022/04/11 00:50:03;;;;;;;3.38;2.30;;;18.10;34.40;;;;;;5035816;28;20028;-79
2022/04/11 00:52:31;;;;;;;3.20;2.38;;;18.10;34.40;;;;;;5035826;28;20029;-77
2022/04/11 00:54:58;;;;;;;3.65;2.28;;;18.10;34.50;;;;;;5036420;28;20072;-80
2022/04/11 00:57:23;;;;;;;3.28;2.38;;;18.10;34.40;;;;;;5034706;28;20738;-78
2022/04/11 00:59:50;;;;;;;5.18;2.67;;;18.10;34.50;;;;;;5033834;28;20018;-79
2022/04/11 01:02:17;;;;;;;3.78;2.67;;;18.10;34.50;;;;;;5033268;28;20009;-78
2022/04/11 01:04:43;;;;;;;3.05;2.00;;;18.10;34.50;;;;;;5034764;28;20022;-77
2022/04/11 01:07:12;;;;;;;3.80;2.15;;;18.10;34.60;;;;;;5035194;28;20045;-79
2022/04/11 01:09:39;;;;;;;4.22;2.53;;;18.10;34.60;;;;;;5037413;28;20026;-81
2022/04/11 01:12:06;;;;;;;3.25;2.30;;;18.10;34.60;;;;;;5035967;28;20032;-79
2022/04/11 01:14:32;;;;;;;3.53;2.42;;;18.10;34.60;;;;;;5035570;28;20049;-77
2022/04/11 01:16:59;;;;;;;3.83;2.40;;;18.10;34.60;;;;;;5035997;28;20025;-77
2022/04/11 01:19:25;;;;;;;2.80;2.17;;;18.10;34.60;;;;;;5019448;28;20013;-77
2022/04/11 01:21:51;;;;;;;4.95;2.42;;;18.10;34.60;;;;;;5038243;28;20021;-79
2022/04/11 01:24:21;;;;;;;4.05;2.60;;;18.10;34.60;;;;;;5040240;28;20018;-77
2022/04/11 01:26:47;;;;;;;2.50;2.20;;;18.00;34.60;;;;;;5039698;28;20022;-79
2022/04/11 01:29:13;;;;;;;2.88;2.10;;;18.10;34.70;;;;;;5023738;28;20264;-79
2022/04/11 01:31:38;;;;;;;3.10;2.20;;;18.10;34.70;;;;;;5039081;28;20542;-79
2022/04/11 01:34:05;;;;;;;3.38;2.38;;;18.10;34.70;;;;;;5038434;28;20033;-77
2022/04/11 01:36:30;;;;;;;3.05;2.10;;;18.00;34.70;;;;;;5037673;28;20025;-77
2022/04/11 01:38:56;;;;;;;3.58;2.42;;;18.00;34.70;;;;;;5019761;28;20484;-76
2022/04/11 01:41:22;;;;;;;3.03;2.22;;;18.00;34.70;;;;;;5036433;28;20049;-76
2022/04/11 01:43:49;;;;;;;4.30;2.55;;;18.00;34.70;;;;;;5019950;28;20045;-76
2022/04/11 01:46:15;;;;;;;2.88;2.10;;;18.00;34.70;;;;;;5037948;28;20018;-79
2022/04/11 01:48:41;;;;;;;2.75;1.90;;;18.00;34.70;;;;;;5039019;28;20105;-77
2022/04/11 01:51:07;;;;;;;3.83;2.40;;;18.00;34.80;;;;;;5039770;28;20018;-78
2022/04/11 01:53:33;;;;;;;2.75;2.10;;;18.00;34.80;;;;;;5040613;28;20032;-76
2022/04/11 01:55:59;;;;;;;4.22;2.15;;;18.00;34.80;;;;;;5039367;28;20111;-76
2022/04/11 01:58:25;;;;;;;4.43;2.53;;;18.00;34.80;;;;;;5040957;28;20021;-75
2022/04/11 02:00:51;;;;;;;3.63;2.40;;;18.00;34.80;;;;;;5024378;28;20100;-75
2022/04/11 02:03:16;;;;;;;3.65;2.45;;;18.00;34.80;;;;;;5041751;28;20354;-76
2022/04/11 02:05:42;;;;;;;2.60;2.00;;;18.00;34.80;;;;;;5041634;28;20028;-77
2022/04/11 02:08:10;;;;;;;3.40;1.92;;;18.00;34.80;;;;;;5039125;28;20017;-75
2022/04/11 02:10:36;;;;;;;3.38;2.17;;;18.00;34.80;;;;;;5016251;28;20087;-75
2022/04/11 02:13:02;;;;;;;3.40;2.08;;;18.00;34.90;;;;;;5016068;28;20017;-77
2022/04/11 02:15:28;;;;;;;3.25;2.40;;;18.00;34.90;;;;;;5032575;28;20523;-77
2022/04/11 02:17:58;;;;;;;2.97;2.20;;;18.00;34.90;;;;;;5033962;28;20045;-78
2022/04/11 02:20:24;;;;;;;2.92;2.00;;;18.00;34.80;;;;;;5034047;28;20067;-75
2022/04/11 02:22:54;;;;;;;3.17;2.22;;;18.00;34.90;;;;;;5037093;28;20033;-76
2022/04/11 02:25:27;;;;;;;3.03;2.00;;;18.00;34.90;;;;;;5022666;28;20024;-79
2022/04/11 02:27:57;;;;;;;3.30;2.30;;;17.90;34.80;;;;;;5038632;28;20256;-77
2022/04/11 02:30:23;;;;;;;3.50;2.20;;;18.00;34.90;;;;;;5039289;28;20036;-79
2022/04/11 02:32:50;;;;;;;2.95;2.20;;;18.00;35.00;;;;;;5039918;28;20044;-78
2022/04/11 02:35:16;;;;;;;3.33;2.08;;;17.90;34.90;;;;;;5040963;28;20080;-77
2022/04/11 02:37:44;;;;;;;3.20;2.13;;;17.90;35.00;;;;;;5038337;28;20033;-76
2022/04/11 02:40:10;;;;;;;3.38;2.20;;;17.90;35.00;;;;;;5035933;28;20009;-78
2022/04/11 02:42:36;;;;;;;2.83;2.00;;;17.90;34.90;;;;;;5035797;28;20018;-76
2022/04/11 02:45:03;;;;;;;2.92;1.92;;;17.90;35.10;;;;;;5036697;28;20096;-76
2022/04/11 02:47:30;;;;;;;3.35;2.10;;;17.90;35.00;;;;;;5035781;28;20032;-77
2022/04/11 02:49:56;;;;;;;3.15;2.35;;;17.90;35.00;;;;;;5036867;28;20030;-76
2022/04/11 02:52:23;;;;;;;2.63;2.13;;;17.90;35.00;;;;;;5035598;28;20017;-77
2022/04/11 02:54:48;;;;;;;3.40;2.20;;;17.90;35.00;;;;;;5035950;28;20029;-77
2022/04/11 02:57:14;;;;;;;3.92;1.92;;;17.90;35.10;;;;;;5035111;28;20036;-78
2022/04/11 02:59:41;;;;;;;3.10;2.13;;;17.90;35.00;;;;;;5036149;28;20020;-77
2022/04/11 03:02:08;;;;;;;3.58;2.30;;;17.90;35.00;;;;;;5035205;28;20021;-77
2022/04/11 03:04:34;;;;;;;2.95;2.00;;;17.90;35.00;;;;;;5035557;28;20025;-76
2022/04/11 03:07:03;;;;;;;3.58;2.15;;;17.90;35.10;;;;;;5036394;28;20027;-76
2022/04/11 03:09:29;;;;;;;3.17;2.10;;;17.90;35.10;;;;;;5036164;28;20178;-77
2022/04/11 03:11:55;;;;;;;3.65;1.98;;;17.90;35.10;;;;;;5036558;28;20275;-76
2022/04/11 03:14:21;;;;;;;3.47;2.17;;;17.90;35.20;;;;;;5018919;28;20395;-78
2022/04/11 03:16:46;;;;;;;4.10;2.60;;;17.90;35.20;;;;;;5035417;28;20102;-79
2022/04/11 03:19:13;;;;;;;2.97;2.03;;;17.80;35.10;;;;;;5035007;28;20018;-76
2022/04/11 03:21:39;;;;;;;3.17;2.10;;;17.90;35.30;;;;;;5036017;28;20026;-76
2022/04/11 03:24:06;;;;;;;3.70;2.28;;;18.00;35.20;;;;;;5036502;28;20052;-77
2022/04/11 03:26:32;;;;;;;3.28;1.80;;;18.10;35.00;;;;;;5037583;28;20424;-78
2022/04/11 03:28:58;;;;;;;3.85;2.30;;;18.10;34.80;;;;;;5019756;28;20018;-76
2022/04/11 03:31:25;;;;;;;3.95;2.40;;;18.30;34.60;;;;;;5037278;28;20038;-76
2022/04/11 03:33:51;;;;;;;3.67;2.20;;;18.40;34.30;;;;;;5037180;28;20017;-77
2022/04/11 03:36:17;;;;;;;2.15;1.80;;;18.60;34.10;;;;;;5037058;28;20029;-77
2022/04/11 03:38:43;;;;;;;3.30;2.00;;;18.70;33.80;;;;;;5036714;28;20026;-76
2022/04/11 03:41:08;;;;;;;3.08;2.03;;;18.80;33.50;;;;;;5036299;28;20009;-76
2022/04/11 03:43:34;;;;;;;3.28;1.90;;;18.90;33.30;;;;;;5019883;28;20045;-76
2022/04/11 03:46:00;;;;;;;2.55;2.00;;;19.00;33.10;;;;;;5037446;28;20018;-78
2022/04/11 03:48:25;;;;;;;2.85;1.85;;;19.10;32.90;;;;;;5036882;28;20013;-78
2022/04/11 03:50:51;;;;;;;3.25;1.77;;;19.20;32.70;;;;;;5036738;28;20021;-76
2022/04/11 03:53:18;;;;;;;3.42;2.00;;;19.30;32.60;;;;;;5040813;28;20017;-76
2022/04/11 03:55:44;;;;;;;3.10;1.88;;;19.40;32.50;;;;;;5022829;28;20034;-78
2022/04/11 03:58:10;;;;;;;2.60;1.92;;;19.50;32.30;;;;;;5039693;28;20025;-77
2022/04/11 04:00:37;;;;;;;2.55;1.88;;;19.60;32.20;;;;;;5039241;28;20017;-78
2022/04/11 04:03:11;;;;;;;3.42;1.90;;;19.70;32.00;;;;;;5040171;28;20068;-78
2022/04/11 04:05:43;;;;;;;2.17;1.80;;;19.80;31.80;;;;;;5023600;28;20017;-76
2022/04/11 04:08:10;;;;;;;2.53;1.70;;;19.90;31.70;;;;;;5034749;28;20025;-77
2022/04/11 04:10:36;;;;;;;3.03;1.73;;;20.00;31.60;;;;;;5034188;28;20017;-76
2022/04/11 04:13:02;;;;;;;2.38;1.70;;;20.00;31.40;;;;;;5034240;28;20365;-78
2022/04/11 04:15:28;;;;;;;2.10;1.60;;;20.10;31.30;;;;;;5033816;28;20052;-78
2022/04/11 04:17:55;;;;;;;2.25;1.80;;;20.20;31.20;;;;;;5033623;28;20030;-76
2022/04/11 04:20:23;;;;;;;3.15;1.80;;;20.30;31.00;;;;;;5033701;28;20428;-80
2022/04/11 04:22:49;;;;;;;4.18;2.00;;;20.40;30.90;;;;;;5020507;28;20026;-78
2022/04/11 04:25:15;;;;;;;3.13;1.85;;;20.50;30.80;;;;;;5021209;28;20029;-78
2022/04/11 04:27:42;;;;;;;2.65;1.80;;;20.60;30.70;;;;;;5037998;28;20024;-80
2022/04/11 04:30:09;;;;;;;2.72;1.88;;;20.60;30.50;;;;;;5039410;28;20018;-78
2022/04/11 04:32:35;;;;;;;3.38;1.70;;;20.70;30.50;;;;;;5022091;28;20092;-79
2022/04/11 04:35:01;;;;;;;2.72;1.70;;;20.70;30.40;;;;;;5037881;28;20034;-78
2022/04/11 04:37:27;;;;;;;2.67;1.83;;;20.80;30.30;;;;;;5039622;28;20392;-80
2022/04/11 04:39:54;;;;;;;2.42;1.63;;;20.80;30.20;;;;;;5038342;28;20018;-80
2022/04/11 04:42:21;;;;;;;2.90;1.85;;;20.90;30.10;;;;;;5039448;28;20029;-79
2022/04/11 04:44:46;;;;;;;3.53;1.80;;;20.90;30.00;;;;;;5022113;28;20017;-79
2022/04/11 04:47:17;;;;;;;2.33;1.88;;;21.00;30.00;;;;;;5038930;28;20022;-79
2022/04/11 04:49:43;;;;;;;;;;;21.00;30.00;;;;;;5038095;28;20127;-78
2022/04/11 04:52:08;;;;;;;2.58;1.65;;;21.00;30.00;;;;;;5038377;28;19909;-76
2022/04/11 04:54:35;;;;;;;2.95;1.60;;;21.10;30.00;;;;;;5034351;28;20489;-75
2022/04/11 04:57:02;;;;;;;3.47;1.83;;;21.10;29.90;;;;;;5035157;28;20078;-77
2022/04/11 04:59:28;;;;;;;2.35;1.85;;;21.10;29.90;;;;;;5036314;28;20022;-75
2022/04/11 05:01:54;;;;;;;3.15;1.80;;;21.20;29.90;;;;;;5035380;28;20400;-75
2022/04/11 05:04:20;;;;;;;2.75;1.70;;;21.20;29.80;;;;;;5035461;28;20091;-77
2022/04/11 05:06:46;;;;;;;3.85;2.30;;;21.20;29.80;;;;;;5035554;28;20018;-76
2022/04/11 05:09:13;;;;;;;3.50;1.80;;;21.30;29.80;;;;;;5034190;28;20104;-78
2022/04/11 05:11:40;;;;;;;2.33;1.65;;;21.30;29.70;;;;;;5034171;28;20021;-77
2022/04/11 05:14:07;;;;;;;3.08;1.85;;;21.30;29.70;;;;;;5034336;28;20022;-77
2022/04/11 05:16:34;;;;;;;3.95;1.73;;;21.30;29.60;;;;;;5032933;28;20045;-75
2022/04/11 05:19:00;;;;;;;2.70;1.60;;;21.40;29.60;;;;;;5034511;28;20476;-77
2022/04/11 05:21:25;;;;;;;2.78;1.55;;;21.40;29.60;;;;;;5033830;28;20021;-76
2022/04/11 05:23:51;;;;;;;3.22;1.63;;;21.50;29.60;;;;;;5037355;28;20028;-76
2022/04/11 05:26:18;;;;;;;3.42;1.88;;;21.50;29.50;;;;;;5020418;28;20428;-75
2022/04/11 05:28:45;;;;;;;2.30;1.90;;;21.50;29.50;;;;;;5037432;28;20496;-77
2022/04/11 05:31:11;;;;;;;3.70;1.65;;;21.50;29.50;;;;;;5037027;28;20018;-75
2022/04/11 05:33:37;;;;;;;3.15;1.58;;;21.60;29.40;;;;;;5038211;28;20143;-77
2022/04/11 05:36:03;;;;;;;2.58;1.60;;;21.60;29.40;;;;;;5036866;28;20510;-77
2022/04/11 05:38:29;;;;;;;2.92;1.70;;;21.60;29.40;;;;;;5034787;28;20028;-76
2022/04/11 05:40:56;;;;;;;3.80;1.90;;;21.70;29.40;;;;;;5033999;28;20018;-75
2022/04/11 05:43:22;;;;;;;2.80;1.60;;;21.70;29.30;;;;;;5016008;28;20040;-76
2022/04/11 05:45:49;;;;;;;2.67;1.95;;;21.70;29.40;;;;;;5032815;28;20013;-76
2022/04/11 05:48:14;;;;;;;3.88;1.90;;;21.80;29.30;;;;;;5032802;28;20018;-76
2022/04/11 05:50:40;;;;;;;2.70;1.67;;;21.90;29.20;;;;;;5032314;28;20018;-75
2022/04/11 05:53:06;;;;;;;5.22;2.15;;;21.90;29.10;;;;;;5016220;28;20017;-76
2022/04/11 05:55:32;;;;;;;2.88;1.80;;;22.00;29.00;;;;;;5032938;28;20511;-76
2022/04/11 05:57:58;;;;;;;3.25;1.77;;;22.00;29.00;;;;;;5035593;28;20473;-76
2022/04/11 06:00:25;;;;;;;2.55;1.58;;;22.10;28.90;;;;;;5020312;28;20112;-78
2022/04/11 06:02:51;;;;;;;3.17;1.50;;;22.20;28.80;;;;;;5036576;28;20092;-75
2022/04/11 06:05:17;;;;;;;2.88;1.48;;;22.20;28.80;;;;;;5036521;28;20036;-74
2022/04/11 06:07:43;;;;;;;2.50;1.60;;;22.30;28.80;;;;;;5036761;28;20104;-74
2022/04/11 06:10:12;;;;;;;2.00;1.48;;;22.40;28.70;;;;;;5036967;28;20041;-76
2022/04/11 06:12:38;;;;;;;3.88;1.60;;;22.50;28.60;;;;;;5037670;28;20049;-75
2022/04/11 06:15:05;;;;;;;2.40;1.50;;;22.50;28.50;;;;;;5038332;28;20054;-75
2022/04/11 06:17:32;;;;;;;3.08;1.50;;;22.60;28.40;;;;;;5037343;28;20073;-78
2022/04/11 06:19:58;;;;;;;2.67;1.60;;;22.70;28.30;;;;;;5036846;28;20029;-75
2022/04/11 06:22:24;;;;;;;2.75;1.70;;;22.70;28.30;;;;;;5036706;28;20014;-75
2022/04/11 06:24:50;;;;;;;3.75;1.73;;;22.80;28.20;;;;;;5035283;28;20105;-75
2022/04/11 06:27:17;;;;;;;2.88;1.50;;;22.90;28.10;;;;;;5019260;28;20044;-76
2022/04/11 06:29:43;;;;;;;2.65;1.50;;;23.00;28.00;;;;;;5035849;28;20021;-75
2022/04/11 06:32:09;;;;;;;3.33;1.45;;;23.10;27.90;;;;;;5035726;28;20022;-76
2022/04/11 06:34:36;;;;;;;1.80;1.35;;;23.20;27.80;;;;;;5035325;28;20698;-76
2022/04/11 06:37:03;;;;;;;2.58;1.45;;;23.30;27.80;;;;;;5036908;28;20022;-76
2022/04/11 06:39:29;;;;;;;2.88;1.42;;;23.40;27.70;;;;;;5038163;28;20040;-76
2022/04/11 06:41:56;;;;;;;2.45;1.60;;;23.50;27.60;;;;;;5038200;28;20041;-76
2022/04/11 06:44:23;;;;;;;2.33;1.40;;;23.50;27.50;;;;;;5039371;28;20022;-76
2022/04/11 06:46:49;;;;;;;2.35;1.35;;;23.70;27.40;;;;;;5037637;28;20018;-76
2022/04/11 06:49:16;;;;;;;3.25;1.60;;;23.80;27.30;;;;;;5036909;28;20037;-75
2022/04/11 06:51:42;;;;;;;2.30;1.52;;;24.00;27.20;;;;;;5038524;28;20101;-77
2022/04/11 06:54:08;;;;;;;2.88;1.50;;;24.00;27.00;;;;;;5035627;28;20053;-75
2022/04/11 06:56:34;;;;;;;2.55;1.50;;;24.10;27.00;;;;;;5035335;28;20052;-76
2022/04/11 06:59:00;;;;;;;3.67;1.58;;;24.20;26.90;;;;;;5035745;28;20025;-76
2022/04/11 07:01:26;;;;;;;3.08;1.60;;;24.30;26.90;;;;;;5035689;28;20079;-76
2022/04/11 07:03:52;;;;;;;2.63;1.40;;;24.30;26.80;;;;;;5035587;28;20029;-76
2022/04/11 07:06:18;;;;;;;3.30;1.55;;;24.40;26.80;;;;;;5035367;28;20542;-75
2022/04/11 07:08:43;;;;;;;2.65;1.55;;;24.60;26.70;;;;;;5035951;28;20033;-75
2022/04/11 07:11:10;;;;;;;2.00;1.30;;;24.70;26.50;;;;;;5036245;28;20014;-75
2022/04/11 07:13:35;;;;;;;2.63;1.30;;;24.80;26.30;;;;;;5036090;28;20053;-75
2022/04/11 07:16:01;;;;;;;4.13;1.40;;;24.90;26.30;;;;;;5035891;28;20049;-75
2022/04/11 07:18:28;;;;;;;2.28;1.48;;;25.00;26.30;;;;;;5036302;28;20112;-75
2022/04/11 07:20:57;;;;;;;2.35;1.40;;;24.90;26.20;;;;;;5035939;28;20044;-74
2022/04/11 07:23:27;;;;;;;2.30;1.40;;;25.00;26.20;;;;;;5035690;28;20032;-75
2022/04/11 07:25:53;;;;;;;3.28;1.27;;;25.00;26.20;;;;;;5036422;28;20026;-77
2022/04/11 07:28:19;;;;;;;3.50;1.60;;;25.00;26.20;;;;;;5035329;28;20029;-75
2022/04/11 07:30:45;;;;;;;1.88;1.25;;;25.10;26.20;;;;;;5035239;28;20025;-75
2022/04/11 07:33:11;;;;;;;3.67;1.55;;;25.10;26.20;;;;;;5035945;28;20025;-76
2022/04/11 07:35:37;;;;;;;2.67;1.55;;;25.10;26.20;;;;;;5035987;28;20041;-76
2022/04/11 07:38:03;;;;;;;4.72;1.40;;;25.20;26.10;;;;;;5036228;28;20022;-76
2022/04/11 07:40:29;;;;;;;3.03;1.58;;;25.30;26.10;;;;;;5036611;28;20029;-76
2022/04/11 07:42:55;;;;;;;3.15;1.65;;;25.30;26.00;;;;;;5036469;28;20015;-76
2022/04/11 07:45:21;;;;;;;4.35;1.88;;;25.40;26.00;;;;;;5035771;28;20049;-76
2022/04/11 07:47:47;;;;;;;4.32;1.77;;;25.40;25.90;;;;;;5035309;28;20029;-76
2022/04/11 07:50:12;;;;;;;4.28;1.50;;;25.50;26.00;;;;;;5019307;28;20013;-77
2022/04/11 07:52:39;;;;;;;5.50;1.70;;;25.50;25.90;;;;;;5018892;28;20108;-78
2022/04/11 07:55:06;;;;;;;8.85;1.98;;;25.60;25.90;;;;;;5035426;28;20021;-78
2022/04/11 07:57:35;;;;;;;7.55;2.03;;;25.70;25.80;;;;;;5018610;28;20020;-78
2022/04/11 08:00:03;;;;;;;8.30;2.03;;;25.80;25.70;;;;;;5035608;28;20042;-77
2022/04/11 08:02:29;;;;;;;7.80;2.30;;;25.90;25.70;;;;;;5035673;28;20025;-77
2022/04/11 08:04:55;;;;;;;12.88;2.20;;;25.90;25.70;;;;;;5035915;28;20385;-78
2022/04/11 08:07:21;;;;;;;12.88;2.35;;;25.90;25.60;;;;;;5035784;28;20068;-78
2022/04/11 08:09:48;;;;;;;13.20;3.00;;;26.00;25.70;;;;;;5035481;28;20063;-78
2022/04/11 08:12:17;;;;;;;15.93;3.38;;;26.00;25.70;;;;;;5035242;28;20029;-79
2022/04/11 08:14:43;;;;;;;15.73;4.07;;;26.00;25.60;;;;;;5034682;28;20389;-79
2022/04/11 08:17:09;;;;;;;22.50;4.38;;;26.10;25.60;;;;;;5018586;28;20029;-76
2022/04/11 08:19:35;;;;;;;27.73;5.65;;;26.10;25.60;;;;;;5034056;28;20009;-78
2022/04/11 08:22:10;;;;;;;28.27;5.38;;;26.20;25.60;;;;;;5035503;28;20032;-77
2022/04/11 08:24:36;;;;;;;29.92;6.30;;;26.20;25.50;;;;;;5038047;28;20091;-76
2022/04/11 08:27:03;;;;;;;29.92;5.57;;;26.30;25.50;;;;;;5036150;28;20503;-76
2022/04/11 08:29:29;;;;;;;37.90;6.63;;;26.40;25.50;;;;;;5036456;28;20025;-76
2022/04/11 08:31:54;;;;;;;36.10;7.13;;;26.50;25.40;;;;;;5003069;28;20398;-77
2022/04/11 08:34:20;;;;;;;42.65;7.22;;;26.50;25.40;;;;;;5036156;28;20076;-77
2022/04/11 08:36:48;;;;;;;43.65;8.15;;;26.50;25.40;;;;;;5035406;28;20384;-77
2022/04/11 08:39:14;;;;;;;32.63;7.70;;;26.50;25.40;;;;;;5032861;28;20075;-76
2022/04/11 08:41:40;;;;;;;42.47;7.70;;;26.60;25.30;;;;;;5034345;28;20018;-76
2022/04/11 08:44:06;;;;;;;42.95;8.52;;;26.70;25.30;;;;;;5032606;28;20427;-77
2022/04/11 08:46:33;;;;;;;43.72;8.70;;;26.70;25.30;;;;;;5032481;28;20029;-77
2022/04/11 08:49:00;;;;;;;45.13;8.40;;;26.80;25.30;;;;;;5032514;28;20112;-77
2022/04/11 08:51:26;;;;;;;46.75;9.07;;;26.80;25.30;;;;;;5045220;28;20093;-76
2022/04/11 08:53:52;;;;;;;36.88;8.25;;;26.90;25.20;;;;;;5058186;28;20025;-76
2022/04/11 08:56:18;;;;;;;44.88;8.77;;;26.90;25.10;;;;;;5057935;28;20081;-76
2022/04/11 08:58:44;;;;;;;33.95;7.50;;;26.90;25.10;;;;;;5041639;28;20017;-76
2022/04/11 09:01:10;;;;;;;40.90;8.73;;;26.90;25.10;;;;;;5058583;28;20017;-77
2022/04/11 09:03:36;;;;;;;48.55;8.95;;;27.00;25.10;;;;;;5058202;28;20014;-76
2022/04/11 09:06:09;;;;;;;50.80;9.52;;;27.00;25.10;;;;;;5041734;28;20036;-76
2022/04/11 09:08:52;;;;;;;43.45;9.73;;;27.00;25.10;;;;;;5058085;28;20063;-76
2022/04/11 09:11:28;;;;;;;50.90;10.25;;;27.00;25.10;;;;;;5058475;28;20025;-76
2022/04/11 09:13:54;;;;;;;50.80;10.45;;;27.00;25.10;;;;;;5054272;28;20392;-76
2022/04/11 09:16:25;;;;;;;56.22;9.93;;;26.90;25.10;;;;;;5036590;28;20100;-76
2022/04/11 09:18:52;;;;;;;48.38;9.93;;;26.90;25.10;;;;;;5035560;28;20018;-76
2022/04/11 09:21:18;;;;;;;44.10;9.32;;;26.90;25.10;;;;;;5034839;28;20006;-75
2022/04/11 09:23:44;;;;;;;44.47;9.15;;;26.90;25.10;;;;;;5033816;28;20044;-75
2022/04/11 09:26:21;;;;;;;41.47;8.65;;;26.90;25.10;;;;;;5016314;28;20028;-75
2022/04/11 09:29:00;;;;;;;43.83;8.80;;;26.90;25.10;;;;;;5032953;28;20021;-75
2022/04/11 09:31:26;;;;;;;44.13;9.98;;;26.90;25.10;;;;;;5035027;28;20120;-75
2022/04/11 09:33:52;;;;;;;47.38;8.50;;;26.90;25.00;;;;;;5020361;28;20075;-76
2022/04/11 09:36:20;;;;;;;57.88;9.27;;;26.90;24.90;;;;;;5037608;28;20498;-75
2022/04/11 09:38:58;;;;;;;48.58;9.40;;;26.90;24.90;;;;;;5038503;28;20019;-75
2022/04/11 09:41:34;;;;;;;47.53;9.00;;;26.90;24.80;;;;;;5039031;28;20104;-76
2022/04/11 09:44:22;;;;;;;46.45;8.95;;;26.90;24.80;;;;;;5040390;28;20017;-76
2022/04/11 09:46:49;;;;;;;46.00;8.65;;;26.90;24.70;;;;;;5022878;28;20021;-76
2022/04/11 09:49:16;;;;;;;41.38;8.00;;;26.90;24.70;;;;;;5040598;28;20037;-76
2022/04/11 09:52:05;;;;;;;47.00;8.52;;;26.90;24.70;;;;;;5038307;28;20453;-75
2022/04/11 09:54:31;;;;;;;50.00;9.20;;;26.90;24.70;;;;;;5036264;28;20017;-75
2022/04/11 09:57:01;;;;;;;51.45;9.45;;;26.80;24.60;;;;;;5036250;28;20034;-76
2022/04/11 09:59:27;;;;;;;57.85;9.57;;;26.70;24.70;;;;;;5019603;28;20021;-75
2022/04/11 10:01:56;;;;;;;43.85;7.95;;;26.70;24.80;;;;;;5036305;28;20049;-75
2022/04/11 10:04:22;;;;;;;49.75;9.75;;;26.60;24.80;;;;;;5036043;28;20067;-77
2022/04/11 10:06:48;;;;;;;54.92;10.48;;;26.60;24.80;;;;;;5036213;28;20021;-78
2022/04/11 10:09:14;;;;;;;55.35;8.93;;;26.40;24.80;;;;;;5036625;28;20029;-76
2022/04/11 10:11:41;;;;;;;50.97;8.65;;;26.40;24.80;;;;;;5036018;28;20452;-76
2022/04/11 10:14:12;;;;;;;52.80;9.98;;;26.30;24.80;;;;;;5019712;28;20481;-75
2022/04/11 10:16:42;;;;;;;54.58;8.63;;;26.30;24.80;;;;;;5036065;28;20038;-75
2022/04/11 10:19:08;;;;;;;49.85;8.27;;;26.20;24.80;;;;;;5019501;28;20018;-78
2022/04/11 10:21:33;;;;;;;46.67;8.18;;;26.20;25.00;;;;;;5035822;28;20056;-77
2022/04/11 10:24:05;;;;;;;51.00;8.48;;;26.10;24.90;;;;;;5035668;28;20018;-75
2022/04/11 10:26:55;;;;;;;48.72;7.78;;;26.10;25.00;;;;;;5037058;28;20465;-75
2022/04/11 10:29:40;;;;;;;46.80;8.13;;;26.00;25.00;;;;;;5036526;28;20055;-75
2022/04/11 10:32:12;;;;;;;37.85;7.40;;;25.90;25.00;;;;;;5036915;28;20022;-75
2022/04/11 10:34:57;;;;;;;41.53;8.35;;;25.90;25.00;;;;;;5036656;28;20017;-77
2022/04/11 10:37:28;;;;;;;38.53;7.13;;;25.80;25.00;;;;;;5034916;28;20404;-75
2022/04/11 10:40:17;;;;;;;42.13;7.10;;;25.80;25.00;;;;;;5035226;28;20021;-75
2022/04/11 10:43:01;;;;;;;38.47;7.43;;;25.70;25.00;;;;;;5035398;28;20092;-76
2022/04/11 10:45:40;;;;;;;30.48;5.60;;;25.70;25.00;;;;;;5036124;28;20017;-75
2022/04/11 10:48:10;;;;;;;29.23;5.65;;;25.60;25.40;;;;;;5034721;28;20056;-75
2022/04/11 10:50:36;;;;;;;34.90;5.22;;;25.60;25.00;;;;;;5035363;28;20037;-75
2022/04/11 10:53:24;;;;;;;31.40;5.88;;;25.50;24.90;;;;;;5036338;28;20030;-75
2022/04/11 10:56:05;;;;;;;26.65;5.50;;;25.50;25.00;;;;;;5035906;28;20022;-76
2022/04/11 10:58:50;;;;;;;33.65;5.78;;;25.50;25.00;;;;;;5035790;28;20457;-76
2022/04/11 11:01:49;;;;;;;31.50;5.45;;;25.40;25.00;;;;;;5034785;28;20047;-76
2022/04/11 11:04:17;;;;;;;20.80;4.30;;;25.30;25.00;;;;;;5036093;28;20112;-76
2022/04/11 11:06:45;;;;;;;22.50;4.28;;;25.30;25.00;;;;;;5034527;28;20018;-77
2022/04/11 11:09:15;;;;;;;33.42;5.32;;;25.20;25.00;;;;;;5036132;28;20029;-76
2022/04/11 11:11:42;;;;;;;19.90;4.13;;;25.20;25.00;;;;;;5035236;28;20113;-76
2022/04/11 11:14:07;;;;;;;22.75;4.28;;;25.10;25.00;;;;;;5034913;28;20017;-77
2022/04/11 11:16:36;;;;;;;19.88;3.95;;;25.10;25.00;;;;;;5031274;28;20463;-79
2022/04/11 11:19:02;;;;;;;16.83;4.50;;;25.00;25.00;;;;;;5018505;28;20030;-76
2022/04/11 11:21:28;;;;;;;19.25;3.95;;;25.00;25.10;;;;;;5036313;28;20018;-77
2022/04/11 11:24:12;;;;;;;21.00;3.55;;;24.90;25.10;;;;;;5036094;28;20029;-78
2022/04/11 11:26:45;;;;;;;15.13;3.33;;;24.90;25.10;;;;;;5036011;28;20024;-78
2022/04/11 11:29:14;;;;;;;13.18;2.80;;;24.80;25.10;;;;;;5035997;28;20500;-78
2022/04/11 11:31:40;;;;;;;13.52;3.00;;;24.80;25.10;;;;;;5035855;28;20053;-79
2022/04/11 11:34:11;;;;;;;9.15;2.80;;;24.80;25.10;;;;;;5035676;28;20039;-77
2022/04/11 11:36:37;;;;;;;9.60;2.72;;;24.70;25.10;;;;;;5034768;28;20018;-76
2022/04/11 11:39:16;;;;;;;16.52;3.35;;;24.70;25.10;;;;;;5033939;28;20484;-77
2022/04/11 11:41:48;;;;;;;11.07;2.78;;;24.60;25.10;;;;;;5035223;28;20014;-77
2022/04/11 11:44:15;;;;;;;13.60;3.22;;;24.60;25.20;;;;;;5034342;28;20033;-76
2022/04/11 11:46:46;;;;;;;15.85;3.03;;;24.60;25.20;;;;;;5035129;28;20040;-75
2022/04/11 11:49:11;;;;;;;;;;;24.50;25.30;;;;;;5035481;28;20021;-74
2022/04/11 11:51:37;;;;;;;11.95;3.05;;;24.40;25.30;;;;;;5034117;28;19954;-78
2022/04/11 11:54:04;;;;;;;11.15;2.20;;;24.40;25.80;;;;;;5034172;28;20028;-77
2022/04/11 11:56:40;;;;;;;14.48;2.20;;;24.30;25.40;;;;;;5035284;28;20025;-76
2022/04/11 11:59:06;;;;;;;9.43;2.42;;;24.30;25.90;;;;;;5034487;28;20028;-76
2022/04/11 12:01:32;;;;;;;9.80;2.63;;;24.20;25.50;;;;;;5034634;28;20022;-75
2022/04/11 12:06:42;;;;;;;10.90;2.72;;;24.20;25.50;;;;;;5035881;28;20172;-75
2022/04/11 12:09:18;;;;;;;8.65;2.10;;;24.10;25.60;;;;;;5034214;28;20033;-75
2022/04/11 12:11:44;;;;;;;11.35;2.42;;;24.10;25.60;;;;;;5034136;28;20013;-76
2022/04/11 12:14:10;;;;;;;11.38;2.88;;;24.10;25.60;;;;;;5033993;28;20018;-75
2022/04/11 12:16:37;;;;;;;8.40;2.08;;;24.10;25.70;;;;;;5017088;28;20048;-76
2022/04/11 12:19:04;;;;;;;11.32;2.30;;;24.10;25.80;;;;;;5034191;28;20014;-76
2022/04/11 12:21:37;;;;;;;5.32;1.70;;;24.00;25.80;;;;;;5034104;28;20063;-75
2022/04/11 12:24:04;;;;;;;10.55;2.38;;;24.00;25.80;;;;;;5017745;28;20041;-76
2022/04/11 12:26:36;;;;;;;8.90;2.42;;;23.90;25.80;;;;;;5033584;28;20028;-76
2022/04/11 12:29:08;;;;;;;9.50;2.45;;;23.90;26.30;;;;;;5018425;28;20029;-76
2022/04/11 12:31:34;;;;;;;10.07;1.75;;;23.80;26.00;;;;;;5033983;28;20044;-76
2022/04/11 12:34:12;;;;;;;7.40;2.13;;;23.80;26.00;;;;;;5016912;28;20449;-75
2022/04/11 12:36:38;;;;;;;11.55;2.33;;;23.80;26.00;;;;;;5034249;28;20021;-76
2022/04/11 12:39:13;;;;;;;8.77;2.60;;;23.80;26.10;;;;;;5033902;28;20049;-75
2022/04/11 12:41:47;;;;;;;8.02;2.05;;;23.80;26.10;;;;;;5034198;28;20476;-76
2022/04/11 12:44:19;;;;;;;5.97;1.88;;;23.80;26.20;;;;;;5034557;28;20064;-75
2022/04/11 12:46:48;;;;;;;14.48;3.38;;;23.70;26.20;;;;;;5034996;28;20057;-75
2022/04/11 12:49:18;;;;;;;8.82;1.85;;;23.70;26.30;;;;;;5035020;28;20056;-75